createdAt,value
2018-02-20T00:00:23.838Z,62.50
2018-02-20T00:02:50.850Z,62.50
2018-02-20T00:05:17.880Z,62.60
2018-02-20T00:07:44.977Z,62.60
2018-02-20T00:10:12.045Z,62.60
2018-02-20T00:12:39.060Z,62.50
2018-02-20T00:15:06.413Z,62.60
2018-02-20T00:17:33.433Z,62.50
2018-02-20T00:20:00.865Z,62.60
2018-02-20T00:22:27.888Z,62.60
2018-02-20T00:24:54.889Z,62.90
2018-02-20T00:27:21.899Z,62.60
2018-02-20T00:29:49.668Z,62.60
2018-02-20T00:32:16.680Z,62.50
2018-02-20T00:34:43.709Z,62.50
2018-02-20T00:37:11.094Z,62.40
2018-02-20T00:39:38.099Z,62.50
2018-02-20T00:42:05.938Z,62.50
2018-02-20T00:44:33.002Z,62.40
2018-02-20T00:46:59.998Z,62.50
2018-02-20T00:49:27.003Z,62.40
2018-02-20T00:51:54.077Z,62.50
2018-02-20T00:54:21.111Z,62.50
2018-02-20T00:56:49.232Z,62.50
2018-02-20T00:59:16.253Z,62.40
2018-02-20T01:01:43.278Z,62.50
2018-02-20T01:04:10.436Z,62.50
2018-02-20T01:06:38.290Z,62.50
2018-02-20T01:09:05.366Z,62.50
2018-02-20T01:11:32.377Z,62.40
2018-02-20T01:14:00.154Z,62.60
2018-02-20T01:16:27.145Z,63.20
2018-02-20T01:18:54.132Z,62.40
2018-02-20T01:21:21.897Z,62.50
2018-02-20T01:23:49.003Z,62.40
2018-02-20T01:26:16.847Z,62.50
2018-02-20T01:28:43.946Z,62.40
2018-02-20T01:31:10.966Z,62.40
2018-02-20T01:33:37.964Z,62.40
2018-02-20T01:36:05.013Z,62.40
2018-02-20T01:38:32.122Z,62.40
2018-02-20T01:40:59.433Z,62.40
2018-02-20T01:43:26.494Z,62.40
2018-02-20T01:45:53.650Z,62.30
2018-02-20T01:48:20.648Z,62.40
2018-02-20T01:50:53.693Z,62.40
2018-02-20T01:53:20.762Z,62.30
2018-02-20T01:55:47.830Z,62.40
2018-02-20T01:58:14.834Z,62.30
2018-02-20T02:00:42.703Z,62.40
2018-02-20T02:03:09.766Z,62.40
2018-02-20T02:05:36.765Z,62.30
2018-02-20T02:08:03.770Z,62.30
2018-02-20T02:10:30.763Z,62.30
2018-02-20T02:12:59.111Z,62.30
2018-02-20T02:15:26.111Z,62.30
2018-02-20T02:17:54.041Z,62.30
2018-02-20T02:20:21.077Z,62.30
2018-02-20T02:22:48.425Z,63.10
2018-02-20T02:25:15.450Z,62.30
2018-02-20T02:27:42.469Z,62.40
2018-02-20T02:30:09.653Z,62.30
2018-02-20T02:32:37.037Z,62.30
2018-02-20T02:35:04.105Z,62.30
2018-02-20T02:37:31.152Z,62.30
2018-02-20T02:39:58.215Z,62.40
2018-02-20T02:42:25.242Z,62.30
2018-02-20T02:44:52.494Z,62.30
2018-02-20T02:47:20.254Z,62.40
2018-02-20T02:49:47.303Z,62.20
2018-02-20T02:52:14.718Z,62.30
2018-02-20T02:54:42.203Z,62.30
2018-02-20T02:57:09.295Z,62.30
2018-02-20T02:59:37.082Z,62.60
2018-02-20T03:02:04.083Z,62.20
2018-02-20T03:04:31.095Z,62.10
2018-02-20T03:06:58.165Z,62.30
2018-02-20T03:09:25.277Z,62.30
2018-02-20T03:11:53.150Z,62.20
2018-02-20T03:14:20.148Z,62.20
2018-02-20T03:16:47.932Z,62.40
2018-02-20T03:19:15.018Z,62.20
2018-02-20T03:21:42.127Z,62.30
2018-02-20T03:24:09.292Z,62.20
2018-02-20T03:26:36.287Z,62.20
2018-02-20T03:29:03.298Z,62.20
2018-02-20T03:31:30.316Z,62.20
2018-02-20T03:33:57.321Z,62.20
2018-02-20T03:36:24.347Z,62.20
2018-02-20T03:38:52.181Z,62.10
2018-02-20T03:41:19.286Z,62.10
2018-02-20T03:43:46.351Z,62.10
2018-02-20T03:46:13.366Z,62.10
2018-02-20T03:48:41.221Z,62.10
2018-02-20T03:51:08.228Z,62.00
2018-02-20T03:53:36.019Z,62.00
2018-02-20T03:56:03.793Z,62.00
2018-02-20T03:58:30.821Z,62.00
2018-02-20T04:00:58.260Z,62.00
2018-02-20T04:03:25.582Z,62.00
2018-02-20T04:05:52.584Z,62.00
2018-02-20T04:08:19.588Z,62.00
2018-02-20T04:10:47.380Z,62.00
2018-02-20T04:13:15.194Z,62.00
2018-02-20T04:15:42.961Z,62.00
2018-02-20T04:18:09.978Z,62.00
2018-02-20T04:20:37.025Z,62.00
2018-02-20T04:23:04.041Z,62.00
2018-02-20T04:25:31.048Z,61.90
2018-02-20T04:27:58.048Z,62.00
2018-02-20T04:30:25.846Z,61.90
2018-02-20T04:32:53.703Z,62.00
2018-02-20T04:35:20.701Z,62.00
2018-02-20T04:37:47.738Z,62.00
2018-02-20T04:40:14.756Z,62.00
2018-02-20T04:42:41.768Z,62.00
2018-02-20T04:45:09.612Z,62.00
2018-02-20T04:47:36.613Z,61.90
2018-02-20T04:50:04.373Z,61.80
2018-02-20T04:52:31.391Z,61.90
2018-02-20T04:54:59.264Z,61.80
2018-02-20T04:57:26.269Z,61.80
2018-02-20T04:59:54.119Z,61.80
2018-02-20T05:02:21.201Z,61.80
2018-02-20T05:04:48.272Z,61.90
2018-02-20T05:07:15.276Z,61.80
2018-02-20T05:09:42.291Z,61.80
2018-02-20T05:12:09.287Z,61.80
2018-02-20T05:14:36.309Z,61.80
2018-02-20T05:17:03.307Z,61.80
2018-02-20T05:19:31.078Z,61.80
2018-02-20T05:21:58.909Z,62.60
2018-02-20T05:24:26.011Z,61.80
2018-02-20T05:26:53.062Z,61.80
2018-02-20T05:29:20.165Z,61.80
2018-02-20T05:31:47.183Z,61.70
2018-02-20T05:34:14.216Z,61.70
2018-02-20T05:36:41.278Z,61.80
2018-02-20T05:39:08.307Z,61.80
2018-02-20T05:41:35.321Z,61.70
2018-02-20T05:44:02.324Z,61.70
2018-02-20T05:46:29.328Z,61.80
2018-02-20T05:48:56.333Z,61.70
2018-02-20T05:51:23.449Z,61.70
2018-02-20T05:53:50.442Z,61.80
2018-02-20T05:56:18.230Z,61.70
2018-02-20T05:58:45.274Z,61.70
2018-02-20T06:01:12.306Z,61.70
2018-02-20T06:03:40.081Z,62.90
2018-02-20T06:06:08.580Z,61.10
2018-02-20T06:08:35.634Z,61.10
2018-02-20T06:11:02.657Z,61.00
2018-02-20T06:13:29.688Z,61.20
2018-02-20T06:15:56.743Z,61.30
2018-02-20T06:18:24.127Z,61.00
2018-02-20T06:20:51.448Z,61.10
2018-02-20T06:23:18.452Z,61.10
2018-02-20T06:25:45.702Z,61.00
2018-02-20T06:28:12.824Z,61.00
2018-02-20T06:30:39.904Z,61.00
2018-02-20T06:33:06.910Z,61.00
2018-02-20T06:35:33.906Z,61.00
2018-02-20T06:38:01.137Z,61.00
2018-02-20T06:40:28.183Z,61.10
2018-02-20T06:42:55.281Z,61.10
2018-02-20T06:45:22.325Z,61.20
2018-02-20T06:47:49.343Z,61.10
2018-02-20T06:50:16.393Z,61.20
2018-02-20T06:52:43.472Z,61.20
2018-02-20T06:55:10.541Z,61.20
2018-02-20T06:57:37.579Z,61.20
2018-02-20T07:00:04.589Z,61.30
2018-02-20T07:02:31.986Z,61.30
2018-02-20T07:04:59.022Z,61.30
2018-02-20T07:07:26.024Z,61.30
2018-02-20T07:09:53.104Z,61.30
2018-02-20T07:12:20.132Z,61.30
2018-02-20T07:14:47.906Z,61.20
2018-02-20T07:17:15.722Z,61.20
2018-02-20T07:19:42.715Z,61.30
2018-02-20T07:22:09.724Z,61.20
2018-02-20T07:24:38.273Z,61.30
2018-02-20T07:27:05.307Z,61.20
2018-02-20T07:29:32.346Z,61.20
2018-02-20T07:31:59.333Z,61.20
2018-02-20T07:34:26.348Z,61.30
2018-02-20T07:36:53.470Z,61.30
2018-02-20T07:39:21.271Z,61.30
2018-02-20T07:41:48.264Z,61.30
2018-02-20T07:44:15.280Z,61.30
2018-02-20T07:46:42.332Z,61.30
2018-02-20T07:49:09.404Z,61.30
2018-02-20T07:51:36.414Z,61.30
2018-02-20T07:54:03.434Z,61.30
2018-02-20T07:56:30.446Z,61.30
2018-02-20T07:58:57.520Z,61.30
2018-02-20T08:01:24.606Z,61.30
2018-02-20T08:03:51.614Z,61.30
2018-02-20T08:06:19.656Z,61.40
2018-02-20T08:08:46.690Z,61.30
2018-02-20T08:11:14.469Z,61.30
2018-02-20T08:13:42.239Z,61.30
2018-02-20T08:16:10.152Z,61.30
2018-02-20T08:18:37.246Z,61.30
2018-02-20T08:21:04.258Z,61.40
2018-02-20T08:23:31.253Z,61.30
2018-02-20T08:25:58.316Z,61.30
2018-02-20T08:28:25.378Z,61.50
2018-02-20T08:30:52.454Z,61.30
2018-02-20T08:33:19.480Z,61.30
2018-02-20T08:35:47.242Z,61.40
2018-02-20T08:38:14.263Z,61.30
2018-02-20T08:40:42.034Z,61.30
2018-02-20T08:43:09.032Z,61.30
2018-02-20T08:45:36.792Z,61.70
2018-02-20T08:48:03.888Z,61.30
2018-02-20T08:50:30.922Z,61.30
2018-02-20T08:52:58.121Z,61.30
2018-02-20T08:55:25.140Z,61.40
2018-02-20T08:57:52.134Z,61.30
2018-02-20T09:00:19.972Z,61.40
2018-02-20T09:02:46.999Z,61.40
2018-02-20T09:05:14.861Z,61.40
2018-02-20T09:07:41.985Z,61.30
2018-02-20T09:10:09.778Z,61.40
2018-02-20T09:12:36.792Z,61.40
2018-02-20T09:15:03.886Z,61.40
2018-02-20T09:17:30.910Z,61.30
2018-02-20T09:19:58.024Z,61.40
2018-02-20T09:22:25.087Z,61.30
2018-02-20T09:24:52.109Z,61.30
2018-02-20T09:27:19.877Z,61.40
2018-02-20T09:29:47.691Z,61.40
2018-02-20T09:32:15.460Z,61.40
2018-02-20T09:34:42.580Z,61.40
2018-02-20T09:37:09.617Z,61.40
2018-02-20T09:39:36.677Z,61.40
2018-02-20T09:42:03.693Z,61.40
2018-02-20T09:44:31.641Z,61.50
2018-02-20T09:46:59.456Z,61.40
2018-02-20T09:49:26.460Z,61.40
2018-02-20T09:51:53.471Z,61.40
2018-02-20T09:54:20.556Z,61.40
2018-02-20T09:56:47.659Z,61.40
2018-02-20T09:59:15.170Z,61.40
2018-02-20T10:01:42.255Z,61.40
2018-02-20T10:04:09.266Z,61.40
2018-02-20T10:06:36.446Z,61.30
2018-02-20T10:09:03.469Z,61.40
2018-02-20T10:11:30.537Z,61.50
2018-02-20T10:13:57.651Z,61.30
2018-02-20T10:16:25.034Z,61.40
2018-02-20T10:18:53.098Z,61.40
2018-02-20T10:21:20.119Z,61.30
2018-02-20T10:23:47.166Z,61.40
2018-02-20T10:26:14.293Z,61.40
2018-02-20T10:28:41.349Z,61.30
2018-02-20T10:31:09.174Z,61.30
2018-02-20T10:33:36.174Z,61.30
2018-02-20T10:36:03.982Z,61.40
2018-02-20T10:38:31.046Z,61.30
2018-02-20T10:40:58.058Z,61.30
2018-02-20T10:43:25.071Z,61.30
2018-02-20T10:45:52.088Z,61.30
2018-02-20T10:48:19.967Z,61.50
2018-02-20T10:50:47.761Z,61.30
2018-02-20T10:53:14.794Z,61.40
2018-02-20T10:55:41.800Z,61.30
2018-02-20T10:58:08.804Z,61.40
2018-02-20T11:00:36.873Z,61.30
2018-02-20T11:03:03.878Z,61.30
2018-02-20T11:05:30.926Z,61.40
2018-02-20T11:07:58.700Z,61.30
2018-02-20T11:10:25.739Z,61.40
2018-02-20T11:12:53.540Z,61.40
2018-02-20T11:15:20.605Z,61.30
2018-02-20T11:17:47.617Z,61.30
2018-02-20T11:20:14.626Z,61.30
2018-02-20T11:22:42.523Z,61.50
2018-02-20T11:25:10.313Z,61.40
2018-02-20T11:27:37.315Z,61.30
2018-02-20T11:30:04.310Z,61.30
2018-02-20T11:32:31.396Z,61.40
2018-02-20T11:34:58.407Z,61.30
2018-02-20T11:37:25.441Z,61.30
2018-02-20T11:39:52.470Z,61.70
2018-02-20T11:42:20.441Z,61.50
2018-02-20T11:44:47.457Z,61.30
2018-02-20T11:47:14.493Z,61.40
2018-02-20T11:49:42.272Z,61.30
2018-02-20T11:52:09.298Z,61.40
2018-02-20T11:54:36.314Z,61.30
2018-02-20T11:57:03.376Z,61.40
2018-02-20T11:59:30.459Z,61.30
2018-02-20T12:01:57.567Z,61.40
2018-02-20T12:04:24.595Z,61.40
2018-02-20T12:06:51.614Z,61.40
2018-02-20T12:09:18.614Z,61.40
2018-02-20T12:11:45.629Z,61.30
2018-02-20T12:14:12.660Z,61.40
2018-02-20T12:16:40.433Z,61.40
2018-02-20T12:19:07.523Z,61.30
2018-02-20T12:21:35.397Z,61.40
2018-02-20T12:24:02.423Z,61.30
2018-02-20T12:26:29.433Z,61.30
2018-02-20T12:28:56.826Z,61.40
2018-02-20T12:31:24.632Z,61.30
2018-02-20T12:33:52.445Z,61.40
2018-02-20T12:36:19.595Z,61.30
2018-02-20T12:38:46.761Z,61.40
2018-02-20T12:41:14.642Z,62.40
2018-02-20T12:43:41.612Z,61.30
2018-02-20T12:46:08.705Z,61.40
2018-02-20T12:48:35.770Z,61.40
2018-02-20T12:51:02.781Z,61.40
2018-02-20T12:53:29.833Z,61.30
2018-02-20T12:55:57.757Z,61.30
2018-02-20T12:58:25.536Z,61.40
2018-02-20T13:00:52.549Z,61.30
2018-02-20T13:03:20.195Z,61.40
2018-02-20T13:05:47.990Z,61.40
2018-02-20T13:08:15.042Z,61.50
2018-02-20T13:10:42.083Z,61.40
2018-02-20T13:13:09.147Z,61.40
2018-02-20T13:15:37.025Z,60.80
2018-02-20T13:18:04.090Z,61.40
2018-02-20T13:20:31.338Z,61.40
2018-02-20T13:22:58.336Z,61.40
2018-02-20T13:25:25.340Z,61.30
2018-02-20T13:27:53.111Z,61.40
2018-02-20T13:30:21.019Z,61.40
2018-02-20T13:32:48.794Z,61.40
2018-02-20T13:35:16.622Z,61.40
2018-02-20T13:37:43.793Z,61.40
2018-02-20T13:40:10.800Z,61.40
2018-02-20T13:42:37.849Z,61.30
2018-02-20T13:45:04.876Z,61.30
2018-02-20T13:47:31.925Z,61.40
2018-02-20T13:49:58.974Z,61.40
2018-02-20T13:52:26.089Z,61.30
2018-02-20T13:54:53.191Z,61.30
2018-02-20T13:57:21.704Z,61.30
2018-02-20T13:59:48.907Z,61.30
2018-02-20T14:02:15.972Z,61.40
2018-02-20T14:04:42.993Z,61.50
2018-02-20T14:07:10.003Z,61.40
2018-02-20T14:09:37.802Z,61.40
2018-02-20T14:12:05.693Z,61.50
2018-02-20T14:14:33.496Z,61.50
2018-02-20T14:17:00.542Z,61.30
2018-02-20T14:19:28.413Z,61.40
2018-02-20T14:21:55.441Z,61.40
2018-02-20T14:24:22.478Z,61.40
2018-02-20T14:26:49.972Z,61.30
2018-02-20T14:29:17.038Z,61.40
2018-02-20T14:31:44.104Z,61.30
2018-02-20T14:34:11.109Z,61.40
2018-02-20T14:36:38.885Z,61.50
2018-02-20T14:39:07.433Z,61.40
2018-02-20T14:41:34.430Z,61.40
2018-02-20T14:44:01.467Z,61.30
2018-02-20T14:46:29.323Z,61.30
2018-02-20T14:48:56.382Z,61.30
2018-02-20T14:51:23.465Z,61.20
2018-02-20T14:53:50.472Z,61.30
2018-02-20T14:56:17.664Z,62.30
2018-02-20T14:58:44.706Z,61.40
2018-02-20T15:01:11.829Z,62.30
2018-02-20T15:03:38.857Z,61.40
2018-02-20T15:06:06.734Z,61.70
2018-02-20T15:08:34.537Z,62.30
2018-02-20T15:11:02.317Z,61.80
2018-02-20T15:13:29.351Z,61.70
2018-02-20T15:15:56.710Z,61.50
2018-02-20T15:18:23.945Z,61.40
2018-02-20T15:20:51.000Z,61.30
2018-02-20T15:23:18.067Z,61.40
2018-02-20T15:25:45.146Z,61.30
2018-02-20T15:28:12.266Z,60.90
2018-02-20T15:30:40.038Z,61.30
2018-02-20T15:33:07.104Z,61.20
2018-02-20T15:35:34.206Z,61.30
2018-02-20T15:38:01.263Z,61.30
2018-02-20T15:40:28.639Z,61.30
2018-02-20T15:42:55.637Z,61.20
2018-02-20T15:45:22.688Z,60.40
2018-02-20T15:47:50.511Z,61.70
2018-02-20T15:50:17.511Z,60.90
2018-02-20T15:52:45.370Z,61.70
2018-02-20T15:55:12.474Z,61.60
2018-02-20T15:57:39.644Z,61.40
2018-02-20T16:00:08.159Z,61.20
2018-02-20T16:02:35.216Z,61.20
2018-02-20T16:05:02.276Z,61.20
2018-02-20T16:07:29.577Z,61.20
2018-02-20T16:09:56.582Z,61.20
2018-02-20T16:12:24.600Z,61.20
2018-02-20T16:14:51.736Z,61.20
2018-02-20T16:17:19.557Z,61.80
2018-02-20T16:19:46.624Z,61.80
2018-02-20T16:22:14.648Z,61.70
2018-02-20T16:24:42.197Z,61.70
2018-02-20T16:27:09.234Z,61.50
2018-02-20T16:29:36.577Z,61.50
2018-02-20T16:32:03.808Z,61.50
2018-02-20T16:34:31.482Z,61.60
2018-02-20T16:36:58.786Z,61.60
2018-02-20T16:39:26.046Z,61.60
2018-02-20T16:41:53.313Z,61.40
2018-02-20T16:44:20.932Z,61.50
2018-02-20T16:46:48.145Z,61.50
2018-02-20T16:49:15.293Z,61.50
2018-02-20T16:51:42.350Z,61.60
2018-02-20T16:54:09.399Z,61.40
2018-02-20T16:56:36.408Z,61.50
2018-02-20T16:59:03.443Z,61.40
2018-02-20T17:01:31.122Z,61.50
2018-02-20T17:03:58.178Z,61.50
2018-02-20T17:06:25.335Z,61.60
2018-02-20T17:08:53.235Z,61.60
2018-02-20T17:11:21.131Z,61.60
2018-02-20T17:13:48.199Z,61.60
2018-02-20T17:16:15.255Z,61.60
2018-02-20T17:18:43.500Z,61.60
2018-02-20T17:21:10.548Z,61.60
2018-02-20T17:23:37.661Z,61.20
2018-02-20T17:26:04.807Z,61.60
2018-02-20T17:28:31.959Z,61.60
2018-02-20T17:30:59.192Z,61.50
2018-02-20T17:33:26.989Z,61.60
2018-02-20T17:35:54.840Z,61.60
2018-02-20T17:38:22.034Z,61.50
2018-02-20T17:40:49.113Z,61.40
2018-02-20T17:43:16.145Z,61.40
2018-02-20T17:45:43.199Z,61.40
2018-02-20T17:48:10.289Z,61.50
2018-02-20T17:50:38.257Z,61.50
2018-02-20T17:53:05.274Z,61.40
2018-02-20T17:55:32.397Z,61.40
2018-02-20T17:57:59.417Z,61.40
2018-02-20T18:00:26.714Z,61.40
2018-02-20T18:02:53.764Z,61.40
2018-02-20T18:05:21.610Z,61.50
2018-02-20T18:07:48.612Z,61.40
2018-02-20T18:10:16.461Z,62.20
2018-02-20T18:12:43.670Z,61.40
2018-02-20T18:15:10.776Z,61.40
2018-02-20T18:17:37.933Z,61.40
2018-02-20T18:20:05.769Z,61.40
2018-02-20T18:22:32.927Z,61.40
2018-02-20T18:25:00.771Z,61.40
2018-02-20T18:27:27.818Z,61.40
2018-02-20T18:29:55.642Z,61.40
2018-02-20T18:32:22.697Z,61.30
2018-02-20T18:34:50.438Z,61.40
2018-02-20T18:37:17.589Z,61.40
2018-02-20T18:39:44.606Z,61.30
2018-02-20T18:42:11.886Z,61.40
2018-02-20T18:44:39.023Z,61.30
2018-02-20T18:47:06.925Z,61.30
2018-02-20T18:49:35.201Z,61.20
2018-02-20T18:52:03.058Z,61.40
2018-02-20T18:54:30.187Z,61.20
2018-02-20T18:56:58.226Z,61.40
2018-02-20T18:59:25.978Z,61.30
2018-02-20T19:01:53.049Z,61.20
2018-02-20T19:04:20.041Z,61.20
2018-02-20T19:06:47.802Z,61.90
2018-02-20T19:09:14.880Z,61.30
2018-02-20T19:11:41.870Z,61.20
2018-02-20T19:14:08.924Z,61.20
2018-02-20T19:16:35.960Z,60.90
2018-02-20T19:19:03.131Z,61.30
2018-02-20T19:21:30.946Z,61.40
2018-02-20T19:23:57.947Z,61.50
2018-02-20T19:26:24.958Z,61.40
2018-02-20T19:28:51.972Z,61.40
2018-02-20T19:31:19.937Z,61.40
2018-02-20T19:33:48.953Z,61.30
2018-02-20T19:36:16.002Z,62.00
2018-02-20T19:38:43.786Z,61.30
2018-02-20T19:41:10.911Z,61.30
2018-02-20T19:43:38.056Z,61.30
2018-02-20T19:46:05.060Z,61.20
2018-02-20T19:48:32.111Z,61.20
2018-02-20T19:50:59.110Z,61.30
2018-02-20T19:53:26.130Z,61.20
2018-02-20T19:55:53.957Z,61.70
2018-02-20T19:58:20.991Z,61.10
2018-02-20T20:00:48.074Z,61.10
2018-02-20T20:03:16.049Z,61.20
2018-02-20T20:05:43.833Z,61.20
2018-02-20T20:08:10.921Z,61.20
2018-02-20T20:10:37.921Z,61.20
2018-02-20T20:13:04.939Z,62.20
2018-02-20T20:15:32.244Z,61.20
2018-02-20T20:17:59.254Z,61.10
2018-02-20T20:20:36.904Z,61.20
2018-02-20T20:22:53.277Z,61.20
2018-02-20T20:25:20.347Z,61.10
2018-02-20T20:27:47.412Z,61.10
2018-02-20T20:30:14.416Z,61.20
2018-02-20T20:32:41.410Z,61.10
2018-02-20T20:35:08.409Z,61.10
2018-02-20T20:37:35.551Z,61.10
2018-02-20T20:40:02.623Z,61.70
2018-02-20T20:42:29.576Z,61.10
2018-02-20T20:44:56.592Z,61.20
2018-02-20T20:47:25.112Z,61.20
2018-02-20T20:49:52.894Z,61.20
2018-02-20T20:52:20.216Z,61.20
2018-02-20T20:54:47.213Z,61.20
2018-02-20T20:57:14.291Z,61.20
2018-02-20T20:59:41.486Z,61.10
2018-02-20T21:02:08.550Z,61.10
2018-02-20T21:04:35.653Z,61.10
2018-02-20T21:07:02.701Z,61.20
2018-02-20T21:09:29.697Z,61.20
2018-02-20T21:11:56.799Z,61.10
2018-02-20T21:14:23.817Z,61.10
2018-02-20T21:16:50.850Z,61.20
2018-02-20T21:19:17.851Z,61.30
2018-02-20T21:21:44.894Z,61.10
2018-02-20T21:24:11.977Z,61.20
2018-02-20T21:26:39.047Z,61.10
2018-02-20T21:29:06.118Z,61.10
2018-02-20T21:31:33.150Z,61.10
2018-02-20T21:34:00.910Z,61.90
2018-02-20T21:36:27.913Z,61.10
2018-02-20T21:38:55.036Z,61.10
2018-02-20T21:41:22.041Z,61.10
2018-02-20T21:43:49.892Z,61.10
2018-02-20T21:46:17.081Z,61.10
2018-02-20T21:48:44.089Z,61.00
2018-02-20T21:51:11.947Z,61.10
2018-02-20T21:53:38.946Z,61.10
2018-02-20T21:56:05.998Z,61.10
2018-02-20T21:58:33.094Z,61.10
2018-02-20T22:01:00.145Z,61.10
2018-02-20T22:03:27.205Z,61.10
2018-02-20T22:05:54.201Z,61.10
2018-02-20T22:08:21.296Z,61.90
2018-02-20T22:10:48.389Z,61.10
2018-02-20T22:13:16.213Z,61.10
2018-02-20T22:15:43.395Z,61.10
2018-02-20T22:18:10.433Z,61.10
2018-02-20T22:20:37.472Z,61.10
2018-02-20T22:23:04.509Z,61.10
2018-02-20T22:25:31.520Z,61.10
2018-02-20T22:27:58.710Z,61.10
2018-02-20T22:30:25.709Z,61.10
2018-02-20T22:32:54.213Z,61.10
2018-02-20T22:35:21.305Z,61.10
2018-02-20T22:37:49.126Z,61.10
2018-02-20T22:40:16.140Z,61.10
2018-02-20T22:42:43.217Z,61.10
2018-02-20T22:45:10.301Z,61.10
2018-02-20T22:47:38.070Z,61.80
2018-02-20T22:50:05.154Z,61.10
2018-02-20T22:52:32.952Z,61.40
2018-02-20T22:54:59.973Z,61.10
2018-02-20T22:57:26.995Z,61.10
2018-02-20T22:59:54.038Z,61.10
2018-02-20T23:02:21.034Z,61.00
2018-02-20T23:04:48.042Z,61.10
2018-02-20T23:07:15.055Z,61.10
2018-02-20T23:09:42.113Z,61.10
2018-02-20T23:12:09.192Z,61.10
2018-02-20T23:14:36.254Z,61.10
2018-02-20T23:17:03.330Z,61.10
2018-02-20T23:19:30.338Z,61.20
2018-02-20T23:21:57.330Z,61.20
2018-02-20T23:24:24.473Z,61.10
2018-02-20T23:26:51.525Z,61.00
2018-02-20T23:29:18.519Z,61.10
2018-02-20T23:31:46.326Z,61.10
2018-02-20T23:34:14.095Z,61.10
2018-02-20T23:36:41.177Z,61.00
2018-02-20T23:39:08.176Z,61.10
2018-02-20T23:41:35.939Z,61.10
2018-02-20T23:44:03.738Z,61.10
2018-02-20T23:46:30.778Z,61.10
2018-02-20T23:48:57.778Z,61.10
2018-02-20T23:51:39.522Z,61.10
2018-02-20T23:54:07.287Z,61.20
2018-02-20T23:56:34.352Z,61.10
2018-02-20T23:59:01.354Z,61.10
